KMVN

Details ICAO KMVN
Name MOUNT VERNON
Region United States
Timezone America/Chicago (UTC-5.0)
Plans Departing 5
Arriving 10
Stats Elevation 480 ft / 146 m (AMSL)
Location 38.323250° -88.858713°
Runways 2
Magnetic Variation 2.542° W
Sunrise 2018-05-26 10:37:54 UTC / 2018-05-26 05:37:54 Local
Sunset 2018-05-27 01:09:59 UTC / 2018-05-26 20:09:59 Local
Advertisement - Login to hide

Runways

ID Width Length Bearing (true) Bearing (mag) Surface Threshold Offset Overrun Length
05 150 ft / 46 m 6,496 ft / 1,980 m 49.94° 52.48° Asphalt 773 ft / 236 m 0 ft / 0 m
15 100 ft / 30 m 3,152 ft / 961 m 150.10° 152.64° Asphalt 0 ft / 0 m 0 ft / 0 m
23 150 ft / 46 m 6,496 ft / 1,980 m 229.95° 232.49° Asphalt 0 ft / 0 m 0 ft / 0 m
33 100 ft / 30 m 3,152 ft / 961 m 330.10° 332.64° Asphalt 0 ft / 0 m 0 ft / 0 m

Approach Navaids

Runway Type Ident Frequency Range Bearing (true) Bearing (mag) Slope Elevation
23 Localiser IMVN 111.70 MHz 18 nm / 33 km 229.94° 232.48° - 465 ft / 142 m (AMSL)
23 Glidescope IMVN 111.70 MHz 10 nm / 19 km 229.95° 232.49° 3.00° 470 ft / 143 m (AMSL)

Map

Weather


0- 5 10 15 20 25 30 35+ Temperature / ° C

Clouds and Precipitation
Forecast for 2018-05-26 12:00 UTC. Updated 5 hours ago

Ground ~20,000 ft ~40,000 ft Winds

METAR

KMVN 261604Z AUTO 20005KT 10SM SCT017 27/22 A2986 RMK AO2

TAF

Not found

Frequencies

Unicom 123.00 MHz CTAF/UNICOM
Warning: Do not use this data for real-world aviation or navigation. No guarantee of current accuracy is given.